sensor_id;sensor_type;location;lat;lon;timestamp;P1;P2;P0
62631;PMS5003;48703;51.248;-0.546;2023-07-24T00:02:35;5.57;5.11;
62631;PMS5003;48703;51.248;-0.546;2023-07-24T00:05:36;4.57;4.57;
62631;PMS5003;48703;51.248;-0.546;2023-07-24T00:08:38;5.47;4.37;
62631;PMS5003;48703;51.248;-0.546;2023-07-24T00:11:39;7.10;5.86;
62631;PMS5003;48703;51.248;-0.546;2023-07-24T00:14:40;6.16;5.23;
62631;PMS5003;48703;51.248;-0.546;2023-07-24T00:17:41;5.16;4.54;
62631;PMS5003;48703;51.248;-0.546;2023-07-24T00:20:43;5.10;4.46;
62631;PMS5003;48703;51.248;-0.546;2023-07-24T00:23:44;5.66;5.66;
62631;PMS5003;48703;51.248;-0.546;2023-07-24T00:26:46;4.50;4.33;
62631;PMS5003;48703;51.248;-0.546;2023-07-24T00:29:47;5.10;4.27;
62631;PMS5003;48703;51.248;-0.546;2023-07-24T00:32:49;5.00;4.83;
62631;PMS5003;48703;51.248;-0.546;2023-07-24T00:35:50;6.21;5.49;
62631;PMS5003;48703;51.248;-0.546;2023-07-24T00:38:52;5.67;5.41;
62631;PMS5003;48703;51.248;-0.546;2023-07-24T00:41:53;5.23;4.40;
62631;PMS5003;48703;51.248;-0.546;2023-07-24T00:44:55;5.79;5.51;
62631;PMS5003;48703;51.248;-0.546;2023-07-24T00:47:56;5.20;5.20;
62631;PMS5003;48703;51.248;-0.546;2023-07-24T00:50:57;4.97;4.67;
62631;PMS5003;48703;51.248;-0.546;2023-07-24T00:54:00;4.13;3.96;
62631;PMS5003;48703;51.248;-0.546;2023-07-24T00:57:00;5.30;4.54;
62631;PMS5003;48703;51.248;-0.546;2023-07-24T01:00:02;6.71;5.57;
62631;PMS5003;48703;51.248;-0.546;2023-07-24T01:03:03;5.00;4.36;
62631;PMS5003;48703;51.248;-0.546;2023-07-24T01:06:05;6.11;5.11;
62631;PMS5003;48703;51.248;-0.546;2023-07-24T01:09:06;5.29;4.67;
62631;PMS5003;48703;51.248;-0.546;2023-07-24T01:12:10;5.64;4.79;
62631;PMS5003;48703;51.248;-0.546;2023-07-24T01:15:09;4.96;4.96;
62631;PMS5003;48703;51.248;-0.546;2023-07-24T01:18:11;5.20;4.76;
62631;PMS5003;48703;51.248;-0.546;2023-07-24T01:21:12;5.60;4.41;
62631;PMS5003;48703;51.248;-0.546;2023-07-24T01:24:15;5.61;5.11;
62631;PMS5003;48703;51.248;-0.546;2023-07-24T01:27:18;6.06;5.53;
62631;PMS5003;48703;51.248;-0.546;2023-07-24T01:30:16;5.81;4.60;
62631;PMS5003;48703;51.248;-0.546;2023-07-24T01:33:17;5.51;4.66;
62631;PMS5003;48703;51.248;-0.546;2023-07-24T01:36:19;4.91;4.53;
62631;PMS5003;48703;51.248;-0.546;2023-07-24T01:39:20;6.24;5.50;
62631;PMS5003;48703;51.248;-0.546;2023-07-24T01:42:22;5.07;5.07;
62631;PMS5003;48703;51.248;-0.546;2023-07-24T01:45:23;4.21;4.21;
62631;PMS5003;48703;51.248;-0.546;2023-07-24T01:48:25;4.57;4.57;
62631;PMS5003;48703;51.248;-0.546;2023-07-24T01:51:26;3.94;3.94;
62631;PMS5003;48703;51.248;-0.546;2023-07-24T01:54:28;5.34;4.83;
62631;PMS5003;48703;51.248;-0.546;2023-07-24T01:57:29;4.96;4.17;
62631;PMS5003;48703;51.248;-0.546;2023-07-24T02:00:31;5.76;4.50;
62631;PMS5003;48703;51.248;-0.546;2023-07-24T02:03:32;5.53;5.13;
62631;PMS5003;48703;51.248;-0.546;2023-07-24T02:06:34;6.11;5.51;
62631;PMS5003;48703;51.248;-0.546;2023-07-24T02:09:35;5.59;4.46;
62631;PMS5003;48703;51.248;-0.546;2023-07-24T02:12:36;4.70;4.70;
62631;PMS5003;48703;51.248;-0.546;2023-07-24T02:15:38;5.30;4.96;
62631;PMS5003;48703;51.248;-0.546;2023-07-24T02:18:40;5.41;5.03;
62631;PMS5003;48703;51.248;-0.546;2023-07-24T02:21:41;5.44;4.49;
62631;PMS5003;48703;51.248;-0.546;2023-07-24T02:24:42;5.63;5.26;
62631;PMS5003;48703;51.248;-0.546;2023-07-24T02:27:44;5.66;5.00;
62631;PMS5003;48703;51.248;-0.546;2023-07-24T02:30:46;6.29;5.30;
62631;PMS5003;48703;51.248;-0.546;2023-07-24T02:33:47;5.79;4.19;
62631;PMS5003;48703;51.248;-0.546;2023-07-24T02:36:48;5.89;5.59;
62631;PMS5003;48703;51.248;-0.546;2023-07-24T02:39:51;6.23;5.36;
62631;PMS5003;48703;51.248;-0.546;2023-07-24T02:42:51;5.83;5.14;
62631;PMS5003;48703;51.248;-0.546;2023-07-24T02:45:53;5.26;5.01;
62631;PMS5003;48703;51.248;-0.546;2023-07-24T02:48:54;5.16;4.50;
62631;PMS5003;48703;51.248;-0.546;2023-07-24T02:51:56;5.03;5.03;
62631;PMS5003;48703;51.248;-0.546;2023-07-24T02:54:57;5.34;4.74;
62631;PMS5003;48703;51.248;-0.546;2023-07-24T02:57:59;6.40;5.10;
62631;PMS5003;48703;51.248;-0.546;2023-07-24T03:01:03;6.80;6.16;
62631;PMS5003;48703;51.248;-0.546;2023-07-24T03:04:02;6.44;4.67;
62631;PMS5003;48703;51.248;-0.546;2023-07-24T03:07:03;6.43;4.91;
62631;PMS5003;48703;51.248;-0.546;2023-07-24T03:10:04;7.23;5.59;
62631;PMS5003;48703;51.248;-0.546;2023-07-24T03:13:06;5.70;4.04;
62631;PMS5003;48703;51.248;-0.546;2023-07-24T03:16:07;5.87;5.57;
62631;PMS5003;48703;51.248;-0.546;2023-07-24T03:19:09;5.84;5.66;
62631;PMS5003;48703;51.248;-0.546;2023-07-24T03:22:10;5.69;4.61;
62631;PMS5003;48703;51.248;-0.546;2023-07-24T03:25:12;6.04;4.79;
62631;PMS5003;48703;51.248;-0.546;2023-07-24T03:28:13;4.76;4.33;
62631;PMS5003;48703;51.248;-0.546;2023-07-24T03:31:14;6.07;5.13;
62631;PMS5003;48703;51.248;-0.546;2023-07-24T03:34:16;6.34;5.64;
62631;PMS5003;48703;51.248;-0.546;2023-07-24T03:37:17;6.61;6.23;
62631;PMS5003;48703;51.248;-0.546;2023-07-24T03:40:19;5.47;4.94;
62631;PMS5003;48703;51.248;-0.546;2023-07-24T03:43:21;7.39;7.11;
62631;PMS5003;48703;51.248;-0.546;2023-07-24T03:46:22;5.71;4.77;
62631;PMS5003;48703;51.248;-0.546;2023-07-24T03:49:23;5.60;4.86;
62631;PMS5003;48703;51.248;-0.546;2023-07-24T03:52:25;6.33;5.33;
62631;PMS5003;48703;51.248;-0.546;2023-07-24T03:55:26;5.21;4.56;
62631;PMS5003;48703;51.248;-0.546;2023-07-24T03:58:28;4.94;4.94;
62631;PMS5003;48703;51.248;-0.546;2023-07-24T04:01:29;5.81;5.43;
62631;PMS5003;48703;51.248;-0.546;2023-07-24T04:04:31;5.94;5.06;
62631;PMS5003;48703;51.248;-0.546;2023-07-24T04:07:32;5.74;5.19;
62631;PMS5003;48703;51.248;-0.546;2023-07-24T04:10:34;6.43;5.91;
62631;PMS5003;48703;51.248;-0.546;2023-07-24T04:13:35;6.53;5.90;
62631;PMS5003;48703;51.248;-0.546;2023-07-24T04:16:37;6.46;5.13;
62631;PMS5003;48703;51.248;-0.546;2023-07-24T04:19:38;5.09;4.89;
62631;PMS5003;48703;51.248;-0.546;2023-07-24T04:22:39;7.27;5.47;
62631;PMS5003;48703;51.248;-0.546;2023-07-24T04:25:41;5.74;5.74;
62631;PMS5003;48703;51.248;-0.546;2023-07-24T04:28:42;4.86;4.86;
62631;PMS5003;48703;51.248;-0.546;2023-07-24T04:31:44;5.81;5.31;
62631;PMS5003;48703;51.248;-0.546;2023-07-24T04:34:45;5.36;4.66;
62631;PMS5003;48703;51.248;-0.546;2023-07-24T04:37:47;7.19;6.10;
62631;PMS5003;48703;51.248;-0.546;2023-07-24T04:40:48;5.51;5.51;
62631;PMS5003;48703;51.248;-0.546;2023-07-24T04:43:50;4.59;4.59;
62631;PMS5003;48703;51.248;-0.546;2023-07-24T04:46:51;6.19;5.61;
62631;PMS5003;48703;51.248;-0.546;2023-07-24T04:49:52;6.41;5.67;
62631;PMS5003;48703;51.248;-0.546;2023-07-24T04:52:54;7.10;6.06;
62631;PMS5003;48703;51.248;-0.546;2023-07-24T04:55:55;5.47;4.70;
62631;PMS5003;48703;51.248;-0.546;2023-07-24T04:58:57;5.30;4.70;
62631;PMS5003;48703;51.248;-0.546;2023-07-24T05:01:58;6.33;5.73;
62631;PMS5003;48703;51.248;-0.546;2023-07-24T05:05:00;6.06;4.90;
62631;PMS5003;48703;51.248;-0.546;2023-07-24T05:08:01;7.51;6.03;
62631;PMS5003;48703;51.248;-0.546;2023-07-24T05:11:03;5.71;5.50;
62631;PMS5003;48703;51.248;-0.546;2023-07-24T05:14:04;6.49;5.96;
62631;PMS5003;48703;51.248;-0.546;2023-07-24T05:17:05;6.13;5.63;
62631;PMS5003;48703;51.248;-0.546;2023-07-24T05:20:07;6.59;5.50;
62631;PMS5003;48703;51.248;-0.546;2023-07-24T05:23:08;5.46;4.94;
62631;PMS5003;48703;51.248;-0.546;2023-07-24T05:26:10;5.76;5.11;
62631;PMS5003;48703;51.248;-0.546;2023-07-24T05:29:11;4.97;3.94;
62631;PMS5003;48703;51.248;-0.546;2023-07-24T05:32:13;4.36;3.96;
62631;PMS5003;48703;51.248;-0.546;2023-07-24T05:35:14;5.67;5.20;
62631;PMS5003;48703;51.248;-0.546;2023-07-24T05:38:16;5.03;4.60;
62631;PMS5003;48703;51.248;-0.546;2023-07-24T05:41:17;3.77;3.77;
62631;PMS5003;48703;51.248;-0.546;2023-07-24T05:44:19;4.14;3.59;
62631;PMS5003;48703;51.248;-0.546;2023-07-24T05:47:20;4.61;4.61;
62631;PMS5003;48703;51.248;-0.546;2023-07-24T05:50:22;4.80;3.80;
62631;PMS5003;48703;51.248;-0.546;2023-07-24T05:53:23;4.56;4.56;
62631;PMS5003;48703;51.248;-0.546;2023-07-24T05:56:25;4.01;4.01;
62631;PMS5003;48703;51.248;-0.546;2023-07-24T05:59:26;4.60;4.01;
62631;PMS5003;48703;51.248;-0.546;2023-07-24T06:02:28;5.37;4.76;
62631;PMS5003;48703;51.248;-0.546;2023-07-24T06:05:29;6.84;5.03;
62631;PMS5003;48703;51.248;-0.546;2023-07-24T06:08:30;5.36;4.93;
62631;PMS5003;48703;51.248;-0.546;2023-07-24T06:11:32;4.23;3.93;
62631;PMS5003;48703;51.248;-0.546;2023-07-24T06:14:33;3.86;3.40;
62631;PMS5003;48703;51.248;-0.546;2023-07-24T06:17:35;4.37;4.37;
62631;PMS5003;48703;51.248;-0.546;2023-07-24T06:20:36;4.17;3.80;
62631;PMS5003;48703;51.248;-0.546;2023-07-24T06:23:38;5.66;4.86;
62631;PMS5003;48703;51.248;-0.546;2023-07-24T06:26:39;3.97;3.87;
62631;PMS5003;48703;51.248;-0.546;2023-07-24T06:29:40;3.36;3.31;
62631;PMS5003;48703;51.248;-0.546;2023-07-24T06:32:42;4.13;4.13;
62631;PMS5003;48703;51.248;-0.546;2023-07-24T06:35:43;3.41;3.41;
62631;PMS5003;48703;51.248;-0.546;2023-07-24T06:38:45;3.87;3.57;
62631;PMS5003;48703;51.248;-0.546;2023-07-24T06:41:46;4.27;4.27;
62631;PMS5003;48703;51.248;-0.546;2023-07-24T06:44:48;3.73;3.29;
62631;PMS5003;48703;51.248;-0.546;2023-07-24T06:47:49;4.41;3.60;
62631;PMS5003;48703;51.248;-0.546;2023-07-24T06:50:51;4.29;4.29;
62631;PMS5003;48703;51.248;-0.546;2023-07-24T06:53:52;4.49;3.91;
62631;PMS5003;48703;51.248;-0.546;2023-07-24T06:56:54;5.04;4.44;
62631;PMS5003;48703;51.248;-0.546;2023-07-24T06:59:55;4.83;4.74;
62631;PMS5003;48703;51.248;-0.546;2023-07-24T07:02:57;4.86;4.63;
62631;PMS5003;48703;51.248;-0.546;2023-07-24T07:05:58;3.41;3.41;
62631;PMS5003;48703;51.248;-0.546;2023-07-24T07:09:00;5.51;4.79;
62631;PMS5003;48703;51.248;-0.546;2023-07-24T07:12:01;5.47;5.00;
62631;PMS5003;48703;51.248;-0.546;2023-07-24T07:15:03;4.34;3.56;
62631;PMS5003;48703;51.248;-0.546;2023-07-24T07:18:04;3.73;3.73;
62631;PMS5003;48703;51.248;-0.546;2023-07-24T07:21:06;3.83;3.83;
62631;PMS5003;48703;51.248;-0.546;2023-07-24T07:24:07;4.66;4.47;
62631;PMS5003;48703;51.248;-0.546;2023-07-24T07:27:09;5.56;5.01;
62631;PMS5003;48703;51.248;-0.546;2023-07-24T07:30:10;5.57;4.74;
62631;PMS5003;48703;51.248;-0.546;2023-07-24T07:33:11;4.91;4.40;
62631;PMS5003;48703;51.248;-0.546;2023-07-24T07:36:13;6.04;5.79;
62631;PMS5003;48703;51.248;-0.546;2023-07-24T07:39:14;4.90;4.90;
62631;PMS5003;48703;51.248;-0.546;2023-07-24T07:42:16;6.11;6.11;
62631;PMS5003;48703;51.248;-0.546;2023-07-24T07:45:17;5.54;5.27;
62631;PMS5003;48703;51.248;-0.546;2023-07-24T07:48:18;6.51;5.81;
62631;PMS5003;48703;51.248;-0.546;2023-07-24T07:51:20;4.90;4.90;
62631;PMS5003;48703;51.248;-0.546;2023-07-24T07:54:21;3.26;3.26;
62631;PMS5003;48703;51.248;-0.546;2023-07-24T07:57:23;4.49;4.14;
62631;PMS5003;48703;51.248;-0.546;2023-07-24T08:00:24;4.39;3.66;
62631;PMS5003;48703;51.248;-0.546;2023-07-24T08:03:26;3.81;3.56;
62631;PMS5003;48703;51.248;-0.546;2023-07-24T08:06:27;4.57;3.61;
62631;PMS5003;48703;51.248;-0.546;2023-07-24T08:09:29;4.91;4.00;
62631;PMS5003;48703;51.248;-0.546;2023-07-24T08:12:30;5.19;4.50;
62631;PMS5003;48703;51.248;-0.546;2023-07-24T08:15:33;4.83;4.30;
62631;PMS5003;48703;51.248;-0.546;2023-07-24T08:18:33;4.69;4.51;
62631;PMS5003;48703;51.248;-0.546;2023-07-24T08:21:35;5.23;4.93;
62631;PMS5003;48703;51.248;-0.546;2023-07-24T08:24:36;4.89;4.76;
62631;PMS5003;48703;51.248;-0.546;2023-07-24T08:27:37;4.27;3.11;
62631;PMS5003;48703;51.248;-0.546;2023-07-24T08:30:39;4.90;4.90;
62631;PMS5003;48703;51.248;-0.546;2023-07-24T08:33:40;5.47;5.13;
62631;PMS5003;48703;51.248;-0.546;2023-07-24T08:36:41;4.43;4.43;
62631;PMS5003;48703;51.248;-0.546;2023-07-24T08:39:43;5.61;4.77;
62631;PMS5003;48703;51.248;-0.546;2023-07-24T08:42:44;7.44;6.33;
62631;PMS5003;48703;51.248;-0.546;2023-07-24T08:45:46;6.31;5.31;
62631;PMS5003;48703;51.248;-0.546;2023-07-24T08:48:47;5.27;4.59;
62631;PMS5003;48703;51.248;-0.546;2023-07-24T08:51:48;5.27;4.84;
62631;PMS5003;48703;51.248;-0.546;2023-07-24T08:54:50;5.83;5.53;
62631;PMS5003;48703;51.248;-0.546;2023-07-24T08:57:51;5.06;4.93;
62631;PMS5003;48703;51.248;-0.546;2023-07-24T09:00:53;6.39;5.86;
62631;PMS5003;48703;51.248;-0.546;2023-07-24T09:03:54;6.07;5.60;
62631;PMS5003;48703;51.248;-0.546;2023-07-24T09:06:56;8.03;7.00;
62631;PMS5003;48703;51.248;-0.546;2023-07-24T09:09:57;6.59;5.97;
62631;PMS5003;48703;51.248;-0.546;2023-07-24T09:12:59;6.36;5.59;
62631;PMS5003;48703;51.248;-0.546;2023-07-24T09:16:00;6.33;5.51;
62631;PMS5003;48703;51.248;-0.546;2023-07-24T09:19:02;6.10;5.89;
62631;PMS5003;48703;51.248;-0.546;2023-07-24T09:22:07;4.07;3.34;
62631;PMS5003;48703;51.248;-0.546;2023-07-24T09:25:05;3.27;2.19;
62631;PMS5003;48703;51.248;-0.546;2023-07-24T09:28:10;2.14;1.74;
62631;PMS5003;48703;51.248;-0.546;2023-07-24T09:31:08;1.49;1.49;
62631;PMS5003;48703;51.248;-0.546;2023-07-24T09:34:13;1.93;1.71;
62631;PMS5003;48703;51.248;-0.546;2023-07-24T09:37:11;1.81;1.77;
62631;PMS5003;48703;51.248;-0.546;2023-07-24T09:40:13;2.41;1.99;
62631;PMS5003;48703;51.248;-0.546;2023-07-24T09:43:15;2.33;2.33;
62631;PMS5003;48703;51.248;-0.546;2023-07-24T09:46:15;2.00;1.41;
62631;PMS5003;48703;51.248;-0.546;2023-07-24T09:49:16;2.34;2.11;
62631;PMS5003;48703;51.248;-0.546;2023-07-24T09:52:18;1.41;1.24;
62631;PMS5003;48703;51.248;-0.546;2023-07-24T09:55:21;1.96;1.94;
62631;PMS5003;48703;51.248;-0.546;2023-07-24T09:58:20;1.47;1.47;
62631;PMS5003;48703;51.248;-0.546;2023-07-24T10:01:22;1.31;1.31;
62631;PMS5003;48703;51.248;-0.546;2023-07-24T10:04:23;1.69;1.47;
62631;PMS5003;48703;51.248;-0.546;2023-07-24T10:07:25;1.94;1.94;
62631;PMS5003;48703;51.248;-0.546;2023-07-24T10:10:26;1.57;1.57;
62631;PMS5003;48703;51.248;-0.546;2023-07-24T10:13:28;1.77;1.77;
62631;PMS5003;48703;51.248;-0.546;2023-07-24T10:16:29;1.11;1.07;
62631;PMS5003;48703;51.248;-0.546;2023-07-24T10:19:35;0.87;0.87;
62631;PMS5003;48703;51.248;-0.546;2023-07-24T10:22:32;0.90;0.90;
62631;PMS5003;48703;51.248;-0.546;2023-07-24T10:25:34;0.77;0.77;
62631;PMS5003;48703;51.248;-0.546;2023-07-24T10:28:35;0.49;0.49;
62631;PMS5003;48703;51.248;-0.546;2023-07-24T10:31:36;0.09;0.09;
62631;PMS5003;48703;51.248;-0.546;2023-07-24T10:34:38;0.54;0.54;
62631;PMS5003;48703;51.248;-0.546;2023-07-24T10:37:39;0.36;0.36;
62631;PMS5003;48703;51.248;-0.546;2023-07-24T10:40:41;0.17;0.17;
62631;PMS5003;48703;51.248;-0.546;2023-07-24T10:43:43;0.51;0.51;
62631;PMS5003;48703;51.248;-0.546;2023-07-24T10:46:44;0.21;0.21;
62631;PMS5003;48703;51.248;-0.546;2023-07-24T10:49:48;0.46;0.03;
62631;PMS5003;48703;51.248;-0.546;2023-07-24T10:52:47;0.29;0.00;
62631;PMS5003;48703;51.248;-0.546;2023-07-24T10:55:48;0.93;0.79;
62631;PMS5003;48703;51.248;-0.546;2023-07-24T10:58:50;0.14;0.14;
62631;PMS5003;48703;51.248;-0.546;2023-07-24T11:01:51;0.74;0.74;
62631;PMS5003;48703;51.248;-0.546;2023-07-24T11:04:52;0.29;0.29;
62631;PMS5003;48703;51.248;-0.546;2023-07-24T11:07:54;0.37;0.37;
62631;PMS5003;48703;51.248;-0.546;2023-07-24T11:10:56;0.57;0.57;
62631;PMS5003;48703;51.248;-0.546;2023-07-24T11:13:57;0.49;0.31;
62631;PMS5003;48703;51.248;-0.546;2023-07-24T11:16:58;0.23;0.23;
62631;PMS5003;48703;51.248;-0.546;2023-07-24T11:20:04;0.50;0.13;
62631;PMS5003;48703;51.248;-0.546;2023-07-24T11:23:01;0.77;0.30;
62631;PMS5003;48703;51.248;-0.546;2023-07-24T11:26:04;0.30;0.30;
62631;PMS5003;48703;51.248;-0.546;2023-07-24T11:29:10;0.21;0.21;
62631;PMS5003;48703;51.248;-0.546;2023-07-24T11:32:06;0.64;0.64;
62631;PMS5003;48703;51.248;-0.546;2023-07-24T11:35:07;0.69;0.60;
62631;PMS5003;48703;51.248;-0.546;2023-07-24T11:38:08;0.79;0.79;
62631;PMS5003;48703;51.248;-0.546;2023-07-24T11:41:10;0.00;0.00;
62631;PMS5003;48703;51.248;-0.546;2023-07-24T11:44:11;0.34;0.16;
62631;PMS5003;48703;51.248;-0.546;2023-07-24T11:47:13;0.37;0.37;
62631;PMS5003;48703;51.248;-0.546;2023-07-24T11:50:14;0.06;0.06;
62631;PMS5003;48703;51.248;-0.546;2023-07-24T11:53:19;0.74;0.61;
62631;PMS5003;48703;51.248;-0.546;2023-07-24T11:56:17;0.24;0.24;
62631;PMS5003;48703;51.248;-0.546;2023-07-24T11:59:18;0.40;0.40;
62631;PMS5003;48703;51.248;-0.546;2023-07-24T12:02:20;0.76;0.76;
62631;PMS5003;48703;51.248;-0.546;2023-07-24T12:05:21;0.44;0.44;
62631;PMS5003;48703;51.248;-0.546;2023-07-24T12:08:29;0.00;0.00;
62631;PMS5003;48703;51.248;-0.546;2023-07-24T12:11:24;0.39;0.39;
62631;PMS5003;48703;51.248;-0.546;2023-07-24T12:14:25;0.10;0.10;
62631;PMS5003;48703;51.248;-0.546;2023-07-24T12:17:27;0.94;0.94;
62631;PMS5003;48703;51.248;-0.546;2023-07-24T12:20:28;1.24;0.81;
62631;PMS5003;48703;51.248;-0.546;2023-07-24T12:23:29;1.90;1.43;
62631;PMS5003;48703;51.248;-0.546;2023-07-24T12:26:31;0.83;0.29;
62631;PMS5003;48703;51.248;-0.546;2023-07-24T12:29:32;0.94;0.66;
62631;PMS5003;48703;51.248;-0.546;2023-07-24T12:32:34;0.97;0.97;
62631;PMS5003;48703;51.248;-0.546;2023-07-24T12:35:35;0.89;0.89;
62631;PMS5003;48703;51.248;-0.546;2023-07-24T12:38:37;1.29;1.29;
62631;PMS5003;48703;51.248;-0.546;2023-07-24T12:41:38;1.07;0.90;
62631;PMS5003;48703;51.248;-0.546;2023-07-24T12:44:40;1.17;1.17;
62631;PMS5003;48703;51.248;-0.546;2023-07-24T12:47:41;1.67;1.20;
62631;PMS5003;48703;51.248;-0.546;2023-07-24T12:50:42;1.51;1.47;
62631;PMS5003;48703;51.248;-0.546;2023-07-24T12:53:44;1.93;1.93;
62631;PMS5003;48703;51.248;-0.546;2023-07-24T12:56:46;2.01;2.01;
62631;PMS5003;48703;51.248;-0.546;2023-07-24T12:59:47;2.14;2.14;
62631;PMS5003;48703;51.248;-0.546;2023-07-24T13:02:48;1.80;1.67;
62631;PMS5003;48703;51.248;-0.546;2023-07-24T13:05:50;3.10;2.71;
62631;PMS5003;48703;51.248;-0.546;2023-07-24T13:08:51;1.90;1.90;
62631;PMS5003;48703;51.248;-0.546;2023-07-24T13:11:53;1.83;1.56;
62631;PMS5003;48703;51.248;-0.546;2023-07-24T13:14:54;1.90;1.90;
62631;PMS5003;48703;51.248;-0.546;2023-07-24T13:17:55;2.80;2.41;
62631;PMS5003;48703;51.248;-0.546;2023-07-24T13:20:57;2.83;2.83;
62631;PMS5003;48703;51.248;-0.546;2023-07-24T13:23:58;2.11;1.77;
62631;PMS5003;48703;51.248;-0.546;2023-07-24T13:27:00;1.27;1.27;
62631;PMS5003;48703;51.248;-0.546;2023-07-24T13:30:01;2.70;1.96;
62631;PMS5003;48703;51.248;-0.546;2023-07-24T13:33:03;2.04;1.96;
62631;PMS5003;48703;51.248;-0.546;2023-07-24T13:36:04;2.00;2.00;
62631;PMS5003;48703;51.248;-0.546;2023-07-24T13:39:06;2.03;1.77;
62631;PMS5003;48703;51.248;-0.546;2023-07-24T13:42:07;1.91;1.91;
62631;PMS5003;48703;51.248;-0.546;2023-07-24T13:45:09;2.43;2.43;
62631;PMS5003;48703;51.248;-0.546;2023-07-24T13:48:10;3.21;3.21;
62631;PMS5003;48703;51.248;-0.546;2023-07-24T13:51:11;3.46;3.46;
62631;PMS5003;48703;51.248;-0.546;2023-07-24T13:54:13;2.96;2.79;
62631;PMS5003;48703;51.248;-0.546;2023-07-24T13:57:14;4.23;2.73;
62631;PMS5003;48703;51.248;-0.546;2023-07-24T14:00:16;2.66;2.66;
62631;PMS5003;48703;51.248;-0.546;2023-07-24T14:03:17;3.00;2.36;
62631;PMS5003;48703;51.248;-0.546;2023-07-24T14:06:19;2.01;2.01;
62631;PMS5003;48703;51.248;-0.546;2023-07-24T14:09:20;2.94;2.39;
62631;PMS5003;48703;51.248;-0.546;2023-07-24T14:12:22;1.79;1.69;
62631;PMS5003;48703;51.248;-0.546;2023-07-24T14:15:23;3.39;2.19;
62631;PMS5003;48703;51.248;-0.546;2023-07-24T14:18:24;2.53;2.53;
62631;PMS5003;48703;51.248;-0.546;2023-07-24T14:21:26;2.69;2.04;
62631;PMS5003;48703;51.248;-0.546;2023-07-24T14:24:27;2.49;1.93;
62631;PMS5003;48703;51.248;-0.546;2023-07-24T14:27:29;2.23;1.83;
62631;PMS5003;48703;51.248;-0.546;2023-07-24T14:30:30;2.53;2.23;
62631;PMS5003;48703;51.248;-0.546;2023-07-24T14:33:32;2.50;2.46;
62631;PMS5003;48703;51.248;-0.546;2023-07-24T14:36:33;3.30;2.83;
62631;PMS5003;48703;51.248;-0.546;2023-07-24T14:39:35;3.46;2.90;
62631;PMS5003;48703;51.248;-0.546;2023-07-24T14:42:36;3.71;2.73;
62631;PMS5003;48703;51.248;-0.546;2023-07-24T14:45:38;3.27;2.54;
62631;PMS5003;48703;51.248;-0.546;2023-07-24T14:48:39;2.39;2.39;
62631;PMS5003;48703;51.248;-0.546;2023-07-24T14:51:41;3.67;3.31;
62631;PMS5003;48703;51.248;-0.546;2023-07-24T14:54:42;3.04;2.40;
62631;PMS5003;48703;51.248;-0.546;2023-07-24T14:57:44;2.84;2.84;
62631;PMS5003;48703;51.248;-0.546;2023-07-24T15:00:45;3.16;2.77;
62631;PMS5003;48703;51.248;-0.546;2023-07-24T15:03:47;2.83;2.83;
62631;PMS5003;48703;51.248;-0.546;2023-07-24T15:06:48;4.19;3.50;
62631;PMS5003;48703;51.248;-0.546;2023-07-24T15:09:50;2.10;2.10;
62631;PMS5003;48703;51.248;-0.546;2023-07-24T15:12:51;3.51;3.09;
62631;PMS5003;48703;51.248;-0.546;2023-07-24T15:15:53;4.11;4.03;
62631;PMS5003;48703;51.248;-0.546;2023-07-24T15:18:54;5.49;5.01;
62631;PMS5003;48703;51.248;-0.546;2023-07-24T15:21:55;4.36;4.19;
62631;PMS5003;48703;51.248;-0.546;2023-07-24T15:24:57;3.97;3.97;
62631;PMS5003;48703;51.248;-0.546;2023-07-24T15:27:58;4.26;4.26;
62631;PMS5003;48703;51.248;-0.546;2023-07-24T15:31:00;3.69;3.66;
62631;PMS5003;48703;51.248;-0.546;2023-07-24T15:34:01;4.60;3.60;
62631;PMS5003;48703;51.248;-0.546;2023-07-24T15:37:03;2.83;2.31;
62631;PMS5003;48703;51.248;-0.546;2023-07-24T15:40:04;3.29;3.29;
62631;PMS5003;48703;51.248;-0.546;2023-07-24T15:43:05;3.89;3.89;
62631;PMS5003;48703;51.248;-0.546;2023-07-24T15:46:07;4.09;3.74;
62631;PMS5003;48703;51.248;-0.546;2023-07-24T15:49:08;3.77;3.40;
62631;PMS5003;48703;51.248;-0.546;2023-07-24T15:52:10;4.89;3.64;
62631;PMS5003;48703;51.248;-0.546;2023-07-24T15:55:11;4.70;3.89;
62631;PMS5003;48703;51.248;-0.546;2023-07-24T15:58:12;4.01;4.01;
62631;PMS5003;48703;51.248;-0.546;2023-07-24T16:01:14;3.59;3.43;
62631;PMS5003;48703;51.248;-0.546;2023-07-24T16:04:15;4.10;3.46;
62631;PMS5003;48703;51.248;-0.546;2023-07-24T16:07:17;4.56;4.17;
62631;PMS5003;48703;51.248;-0.546;2023-07-24T16:10:18;4.21;3.41;
62631;PMS5003;48703;51.248;-0.546;2023-07-24T16:13:20;3.39;3.36;
62631;PMS5003;48703;51.248;-0.546;2023-07-24T16:16:21;4.06;3.77;
62631;PMS5003;48703;51.248;-0.546;2023-07-24T16:19:23;5.41;3.40;
62631;PMS5003;48703;51.248;-0.546;2023-07-24T16:22:24;4.29;3.89;
62631;PMS5003;48703;51.248;-0.546;2023-07-24T16:25:25;3.90;3.67;
62631;PMS5003;48703;51.248;-0.546;2023-07-24T16:28:27;26.77;24.48;
62631;PMS5003;48703;51.248;-0.546;2023-07-24T16:31:29;28.43;27.03;
62631;PMS5003;48703;51.248;-0.546;2023-07-24T16:34:31;49.38;45.59;
62631;PMS5003;48703;51.248;-0.546;2023-07-24T16:37:33;52.72;44.49;
62631;PMS5003;48703;51.248;-0.546;2023-07-24T16:40:34;24.51;20.59;
62631;PMS5003;48703;51.248;-0.546;2023-07-24T16:43:36;19.63;16.20;
62631;PMS5003;48703;51.248;-0.546;2023-07-24T16:46:37;4.64;4.19;
62631;PMS5003;48703;51.248;-0.546;2023-07-24T16:49:38;3.16;3.09;
62631;PMS5003;48703;51.248;-0.546;2023-07-24T16:52:40;3.69;3.69;
62631;PMS5003;48703;51.248;-0.546;2023-07-24T16:55:41;7.51;7.24;
62631;PMS5003;48703;51.248;-0.546;2023-07-24T16:58:43;4.34;3.89;
62631;PMS5003;48703;51.248;-0.546;2023-07-24T17:01:45;3.30;3.13;
62631;PMS5003;48703;51.248;-0.546;2023-07-24T17:04:46;3.49;2.90;
62631;PMS5003;48703;51.248;-0.546;2023-07-24T17:07:47;3.73;3.73;
62631;PMS5003;48703;51.248;-0.546;2023-07-24T17:10:49;5.76;5.23;
62631;PMS5003;48703;51.248;-0.546;2023-07-24T17:13:50;4.49;3.99;
62631;PMS5003;48703;51.248;-0.546;2023-07-24T17:16:52;3.93;3.93;
62631;PMS5003;48703;51.248;-0.546;2023-07-24T17:19:53;4.19;4.03;
62631;PMS5003;48703;51.248;-0.546;2023-07-24T17:22:54;4.37;4.13;
62631;PMS5003;48703;51.248;-0.546;2023-07-24T17:25:56;4.23;4.23;
62631;PMS5003;48703;51.248;-0.546;2023-07-24T17:28:57;4.61;4.61;
62631;PMS5003;48703;51.248;-0.546;2023-07-24T17:31:59;5.63;5.51;
62631;PMS5003;48703;51.248;-0.546;2023-07-24T17:35:00;8.20;6.81;
62631;PMS5003;48703;51.248;-0.546;2023-07-24T17:38:02;56.38;47.07;
62631;PMS5003;48703;51.248;-0.546;2023-07-24T17:41:04;56.81;51.86;
62631;PMS5003;48703;51.248;-0.546;2023-07-24T17:44:04;37.49;34.63;
62631;PMS5003;48703;51.248;-0.546;2023-07-24T17:47:06;14.40;12.47;
62631;PMS5003;48703;51.248;-0.546;2023-07-24T17:50:08;12.54;11.29;
62631;PMS5003;48703;51.248;-0.546;2023-07-24T17:53:09;5.06;4.76;
62631;PMS5003;48703;51.248;-0.546;2023-07-24T17:56:10;5.81;5.13;
62631;PMS5003;48703;51.248;-0.546;2023-07-24T17:59:11;3.51;3.51;
62631;PMS5003;48703;51.248;-0.546;2023-07-24T18:02:13;3.83;3.61;
62631;PMS5003;48703;51.248;-0.546;2023-07-24T18:05:14;3.67;3.41;
62631;PMS5003;48703;51.248;-0.546;2023-07-24T18:08:16;2.60;2.60;
62631;PMS5003;48703;51.248;-0.546;2023-07-24T18:11:17;5.04;4.56;
62631;PMS5003;48703;51.248;-0.546;2023-07-24T18:14:19;6.56;5.34;
62631;PMS5003;48703;51.248;-0.546;2023-07-24T18:17:20;3.90;3.90;
62631;PMS5003;48703;51.248;-0.546;2023-07-24T18:20:22;3.57;3.57;
62631;PMS5003;48703;51.248;-0.546;2023-07-24T18:23:23;4.77;4.51;
62631;PMS5003;48703;51.248;-0.546;2023-07-24T18:26:25;5.24;4.74;
62631;PMS5003;48703;51.248;-0.546;2023-07-24T18:29:26;5.59;4.60;
62631;PMS5003;48703;51.248;-0.546;2023-07-24T18:32:28;5.93;5.33;